sensor_id;sensor_type;location;lat;lon;timestamp;P1;durP1;ratioP1;P2;durP2;ratioP2
8407;SDS011;4241;48.452;9.216;2024-01-15T00:01:05;271.33;;;87.43;;
8407;SDS011;4241;48.452;9.216;2024-01-15T00:03:34;264.43;;;85.27;;
8407;SDS011;4241;48.452;9.216;2024-01-15T00:06:01;271.70;;;87.77;;
8407;SDS011;4241;48.452;9.216;2024-01-15T00:08:29;266.57;;;85.33;;
8407;SDS011;4241;48.452;9.216;2024-01-15T00:10:55;277.07;;;88.70;;
8407;SDS011;4241;48.452;9.216;2024-01-15T00:13:22;266.03;;;84.43;;
8407;SDS011;4241;48.452;9.216;2024-01-15T00:15:49;274.83;;;87.90;;
8407;SDS011;4241;48.452;9.216;2024-01-15T00:18:16;271.80;;;86.13;;
8407;SDS011;4241;48.452;9.216;2024-01-15T00:20:44;273.33;;;86.37;;
8407;SDS011;4241;48.452;9.216;2024-01-15T00:23:11;267.03;;;84.53;;
8407;SDS011;4241;48.452;9.216;2024-01-15T00:25:38;276.80;;;88.60;;
8407;SDS011;4241;48.452;9.216;2024-01-15T00:28:05;276.53;;;88.20;;
8407;SDS011;4241;48.452;9.216;2024-01-15T00:30:31;277.63;;;88.23;;
8407;SDS011;4241;48.452;9.216;2024-01-15T00:32:58;272.10;;;86.63;;
8407;SDS011;4241;48.452;9.216;2024-01-15T00:35:25;276.07;;;88.37;;
8407;SDS011;4241;48.452;9.216;2024-01-15T00:37:53;274.07;;;87.10;;
8407;SDS011;4241;48.452;9.216;2024-01-15T00:40:20;276.17;;;87.27;;
8407;SDS011;4241;48.452;9.216;2024-01-15T00:42:47;270.87;;;86.33;;
8407;SDS011;4241;48.452;9.216;2024-01-15T00:45:14;283.13;;;91.03;;
8407;SDS011;4241;48.452;9.216;2024-01-15T00:47:41;268.87;;;84.27;;
8407;SDS011;4241;48.452;9.216;2024-01-15T00:50:08;280.07;;;88.10;;
8407;SDS011;4241;48.452;9.216;2024-01-15T00:52:35;278.20;;;88.03;;
8407;SDS011;4241;48.452;9.216;2024-01-15T00:55:04;285.33;;;90.57;;
8407;SDS011;4241;48.452;9.216;2024-01-15T00:57:31;279.60;;;88.50;;
8407;SDS011;4241;48.452;9.216;2024-01-15T00:59:58;285.27;;;89.40;;
8407;SDS011;4241;48.452;9.216;2024-01-15T01:02:25;282.77;;;89.77;;
8407;SDS011;4241;48.452;9.216;2024-01-15T01:04:52;283.90;;;89.03;;
8407;SDS011;4241;48.452;9.216;2024-01-15T01:07:19;280.57;;;87.87;;
8407;SDS011;4241;48.452;9.216;2024-01-15T01:09:46;285.37;;;90.60;;
8407;SDS011;4241;48.452;9.216;2024-01-15T01:12:14;276.83;;;87.03;;
8407;SDS011;4241;48.452;9.216;2024-01-15T01:14:41;283.83;;;89.67;;
8407;SDS011;4241;48.452;9.216;2024-01-15T01:17:08;272.90;;;85.40;;
8407;SDS011;4241;48.452;9.216;2024-01-15T01:19:35;282.27;;;88.57;;
8407;SDS011;4241;48.452;9.216;2024-01-15T01:22:02;283.20;;;89.63;;
8407;SDS011;4241;48.452;9.216;2024-01-15T01:24:29;286.83;;;90.33;;
8407;SDS011;4241;48.452;9.216;2024-01-15T01:26:55;281.47;;;88.37;;
8407;SDS011;4241;48.452;9.216;2024-01-15T01:29:24;286.87;;;89.93;;
8407;SDS011;4241;48.452;9.216;2024-01-15T01:31:51;284.10;;;89.57;;
8407;SDS011;4241;48.452;9.216;2024-01-15T01:34:18;291.00;;;91.43;;
8407;SDS011;4241;48.452;9.216;2024-01-15T01:36:45;281.17;;;89.00;;
8407;SDS011;4241;48.452;9.216;2024-01-15T01:39:11;283.23;;;89.00;;
8407;SDS011;4241;48.452;9.216;2024-01-15T01:41:38;282.43;;;89.17;;
8407;SDS011;4241;48.452;9.216;2024-01-15T01:44:05;285.83;;;89.60;;
8407;SDS011;4241;48.452;9.216;2024-01-15T01:46:33;276.60;;;86.27;;
8407;SDS011;4241;48.452;9.216;2024-01-15T01:49:04;286.17;;;90.73;;
8407;SDS011;4241;48.452;9.216;2024-01-15T01:51:31;283.60;;;88.60;;
8407;SDS011;4241;48.452;9.216;2024-01-15T01:54:00;280.17;;;87.37;;
8407;SDS011;4241;48.452;9.216;2024-01-15T01:56:27;283.63;;;89.10;;
8407;SDS011;4241;48.452;9.216;2024-01-15T01:58:54;288.60;;;91.73;;
8407;SDS011;4241;48.452;9.216;2024-01-15T02:01:21;285.63;;;89.67;;
8407;SDS011;4241;48.452;9.216;2024-01-15T02:03:50;288.60;;;91.83;;
8407;SDS011;4241;48.452;9.216;2024-01-15T02:06:17;282.37;;;88.33;;
8407;SDS011;4241;48.452;9.216;2024-01-15T02:08:44;283.47;;;88.73;;
8407;SDS011;4241;48.452;9.216;2024-01-15T02:11:11;286.80;;;89.93;;
8407;SDS011;4241;48.452;9.216;2024-01-15T02:13:38;285.40;;;89.33;;
8407;SDS011;4241;48.452;9.216;2024-01-15T02:16:05;289.00;;;90.93;;
8407;SDS011;4241;48.452;9.216;2024-01-15T02:18:39;284.67;;;88.57;;
8407;SDS011;4241;48.452;9.216;2024-01-15T02:21:08;294.80;;;92.43;;
8407;SDS011;4241;48.452;9.216;2024-01-15T02:23:37;278.80;;;88.10;;
8407;SDS011;4241;48.452;9.216;2024-01-15T02:26:04;286.77;;;90.93;;
8407;SDS011;4241;48.452;9.216;2024-01-15T02:28:32;282.07;;;88.27;;
8407;SDS011;4241;48.452;9.216;2024-01-15T02:30:59;292.83;;;92.20;;
8407;SDS011;4241;48.452;9.216;2024-01-15T02:33:26;284.40;;;88.97;;
8407;SDS011;4241;48.452;9.216;2024-01-15T02:35:53;301.23;;;95.33;;
8407;SDS011;4241;48.452;9.216;2024-01-15T02:38:20;279.67;;;86.90;;
8407;SDS011;4241;48.452;9.216;2024-01-15T02:40:49;293.30;;;92.37;;
8407;SDS011;4241;48.452;9.216;2024-01-15T02:43:16;282.87;;;88.20;;
8407;SDS011;4241;48.452;9.216;2024-01-15T02:45:44;291.17;;;90.17;;
8407;SDS011;4241;48.452;9.216;2024-01-15T02:48:11;287.93;;;89.93;;
8407;SDS011;4241;48.452;9.216;2024-01-15T02:50:37;291.40;;;90.97;;
8407;SDS011;4241;48.452;9.216;2024-01-15T02:53:05;283.77;;;89.10;;
8407;SDS011;4241;48.452;9.216;2024-01-15T02:55:31;299.20;;;95.37;;
8407;SDS011;4241;48.452;9.216;2024-01-15T02:58:00;283.70;;;88.17;;
8407;SDS011;4241;48.452;9.216;2024-01-15T03:00:26;297.37;;;92.43;;
8407;SDS011;4241;48.452;9.216;2024-01-15T03:02:54;296.97;;;93.33;;
8407;SDS011;4241;48.452;9.216;2024-01-15T03:05:21;297.77;;;93.17;;
8407;SDS011;4241;48.452;9.216;2024-01-15T03:07:47;291.47;;;90.63;;
8407;SDS011;4241;48.452;9.216;2024-01-15T03:10:14;302.33;;;94.93;;
8407;SDS011;4241;48.452;9.216;2024-01-15T03:12:41;295.33;;;91.47;;
8407;SDS011;4241;48.452;9.216;2024-01-15T03:15:09;305.93;;;94.87;;
8407;SDS011;4241;48.452;9.216;2024-01-15T03:17:36;292.60;;;90.30;;
8407;SDS011;4241;48.452;9.216;2024-01-15T03:20:03;303.07;;;93.77;;
8407;SDS011;4241;48.452;9.216;2024-01-15T03:22:30;296.97;;;92.93;;
8407;SDS011;4241;48.452;9.216;2024-01-15T03:24:57;302.17;;;94.10;;
8407;SDS011;4241;48.452;9.216;2024-01-15T03:27:24;295.37;;;90.93;;
8407;SDS011;4241;48.452;9.216;2024-01-15T03:29:51;301.33;;;93.17;;
8407;SDS011;4241;48.452;9.216;2024-01-15T03:32:20;299.10;;;92.20;;
8407;SDS011;4241;48.452;9.216;2024-01-15T03:34:46;295.73;;;91.53;;
8407;SDS011;4241;48.452;9.216;2024-01-15T03:37:14;291.53;;;90.03;;
8407;SDS011;4241;48.452;9.216;2024-01-15T03:39:40;295.97;;;92.30;;
8407;SDS011;4241;48.452;9.216;2024-01-15T03:42:07;291.67;;;89.53;;
8407;SDS011;4241;48.452;9.216;2024-01-15T03:44:34;298.83;;;92.87;;
8407;SDS011;4241;48.452;9.216;2024-01-15T03:47:01;296.77;;;93.00;;
8407;SDS011;4241;48.452;9.216;2024-01-15T03:49:29;306.07;;;96.00;;
8407;SDS011;4241;48.452;9.216;2024-01-15T03:51:56;298.90;;;93.23;;
8407;SDS011;4241;48.452;9.216;2024-01-15T03:54:23;296.27;;;92.53;;
8407;SDS011;4241;48.452;9.216;2024-01-15T03:56:50;291.47;;;89.67;;
8407;SDS011;4241;48.452;9.216;2024-01-15T03:59:17;299.57;;;93.30;;
8407;SDS011;4241;48.452;9.216;2024-01-15T04:01:47;290.23;;;89.97;;
8407;SDS011;4241;48.452;9.216;2024-01-15T04:04:15;293.33;;;91.17;;
8407;SDS011;4241;48.452;9.216;2024-01-15T04:06:44;292.00;;;90.60;;
8407;SDS011;4241;48.452;9.216;2024-01-15T04:09:11;294.70;;;91.97;;
8407;SDS011;4241;48.452;9.216;2024-01-15T04:11:38;287.20;;;89.03;;
8407;SDS011;4241;48.452;9.216;2024-01-15T04:14:05;298.77;;;92.73;;
8407;SDS011;4241;48.452;9.216;2024-01-15T04:16:32;283.00;;;88.17;;
8407;SDS011;4241;48.452;9.216;2024-01-15T04:18:59;293.90;;;91.03;;
8407;SDS011;4241;48.452;9.216;2024-01-15T04:21:26;278.93;;;87.53;;
8407;SDS011;4241;48.452;9.216;2024-01-15T04:23:54;289.70;;;90.30;;
8407;SDS011;4241;48.452;9.216;2024-01-15T04:26:20;284.83;;;88.97;;
8407;SDS011;4241;48.452;9.216;2024-01-15T04:28:47;292.80;;;92.50;;
8407;SDS011;4241;48.452;9.216;2024-01-15T04:31:20;285.10;;;88.97;;
8407;SDS011;4241;48.452;9.216;2024-01-15T04:33:47;279.93;;;88.53;;
8407;SDS011;4241;48.452;9.216;2024-01-15T04:36:14;275.03;;;86.73;;
8407;SDS011;4241;48.452;9.216;2024-01-15T04:38:41;279.97;;;87.77;;
8407;SDS011;4241;48.452;9.216;2024-01-15T04:41:11;278.90;;;87.20;;
8407;SDS011;4241;48.452;9.216;2024-01-15T04:43:38;280.37;;;87.47;;
8407;SDS011;4241;48.452;9.216;2024-01-15T04:46:05;283.40;;;89.33;;
8407;SDS011;4241;48.452;9.216;2024-01-15T04:48:32;283.60;;;89.43;;
8407;SDS011;4241;48.452;9.216;2024-01-15T04:50:59;283.43;;;89.63;;
8407;SDS011;4241;48.452;9.216;2024-01-15T04:53:26;272.87;;;86.63;;
8407;SDS011;4241;48.452;9.216;2024-01-15T04:55:53;264.93;;;83.83;;
8407;SDS011;4241;48.452;9.216;2024-01-15T04:58:21;274.80;;;86.97;;
8407;SDS011;4241;48.452;9.216;2024-01-15T05:00:50;275.07;;;87.07;;
8407;SDS011;4241;48.452;9.216;2024-01-15T05:03:17;272.80;;;86.77;;
8407;SDS011;4241;48.452;9.216;2024-01-15T05:05:45;280.30;;;89.53;;
8407;SDS011;4241;48.452;9.216;2024-01-15T05:08:12;272.83;;;86.17;;
8407;SDS011;4241;48.452;9.216;2024-01-15T05:10:39;269.30;;;85.37;;
8407;SDS011;4241;48.452;9.216;2024-01-15T05:13:06;274.43;;;87.40;;
8407;SDS011;4241;48.452;9.216;2024-01-15T05:15:34;277.80;;;88.83;;
8407;SDS011;4241;48.452;9.216;2024-01-15T05:18:01;276.43;;;87.40;;
8407;SDS011;4241;48.452;9.216;2024-01-15T05:20:28;275.83;;;87.87;;
8407;SDS011;4241;48.452;9.216;2024-01-15T05:22:54;276.83;;;88.10;;
8407;SDS011;4241;48.452;9.216;2024-01-15T05:25:21;275.80;;;87.77;;
8407;SDS011;4241;48.452;9.216;2024-01-15T05:27:49;283.60;;;90.80;;
8407;SDS011;4241;48.452;9.216;2024-01-15T05:30:16;277.33;;;88.10;;
8407;SDS011;4241;48.452;9.216;2024-01-15T05:32:44;273.47;;;85.67;;
8407;SDS011;4241;48.452;9.216;2024-01-15T05:35:11;277.13;;;87.17;;
8407;SDS011;4241;48.452;9.216;2024-01-15T05:37:39;272.43;;;85.50;;
8407;SDS011;4241;48.452;9.216;2024-01-15T05:40:10;285.50;;;90.27;;
8407;SDS011;4241;48.452;9.216;2024-01-15T05:42:37;282.53;;;89.40;;
8407;SDS011;4241;48.452;9.216;2024-01-15T05:45:05;290.67;;;92.13;;
8407;SDS011;4241;48.452;9.216;2024-01-15T05:47:32;289.13;;;91.03;;
8407;SDS011;4241;48.452;9.216;2024-01-15T05:50:00;291.30;;;91.60;;
8407;SDS011;4241;48.452;9.216;2024-01-15T05:52:27;289.87;;;90.93;;
8407;SDS011;4241;48.452;9.216;2024-01-15T05:54:54;291.67;;;90.70;;
8407;SDS011;4241;48.452;9.216;2024-01-15T05:57:21;296.00;;;93.70;;
8407;SDS011;4241;48.452;9.216;2024-01-15T05:59:48;283.03;;;89.50;;
8407;SDS011;4241;48.452;9.216;2024-01-15T06:02:15;276.03;;;87.37;;
8407;SDS011;4241;48.452;9.216;2024-01-15T06:04:42;284.10;;;90.03;;
8407;SDS011;4241;48.452;9.216;2024-01-15T06:07:10;278.27;;;87.73;;
8407;SDS011;4241;48.452;9.216;2024-01-15T06:09:37;294.10;;;93.70;;
8407;SDS011;4241;48.452;9.216;2024-01-15T06:12:04;279.30;;;88.87;;
8407;SDS011;4241;48.452;9.216;2024-01-15T06:14:33;292.80;;;93.30;;
8407;SDS011;4241;48.452;9.216;2024-01-15T06:17:00;281.40;;;88.40;;
8407;SDS011;4241;48.452;9.216;2024-01-15T06:19:27;286.20;;;91.03;;
8407;SDS011;4241;48.452;9.216;2024-01-15T06:21:54;277.97;;;87.23;;
8407;SDS011;4241;48.452;9.216;2024-01-15T06:24:22;289.93;;;92.07;;
8407;SDS011;4241;48.452;9.216;2024-01-15T06:26:49;279.53;;;88.07;;
8407;SDS011;4241;48.452;9.216;2024-01-15T06:29:16;290.73;;;92.70;;
8407;SDS011;4241;48.452;9.216;2024-01-15T06:31:43;285.87;;;90.17;;
8407;SDS011;4241;48.452;9.216;2024-01-15T06:34:10;298.80;;;93.97;;
8407;SDS011;4241;48.452;9.216;2024-01-15T06:36:37;288.20;;;90.93;;
8407;SDS011;4241;48.452;9.216;2024-01-15T06:39:03;292.50;;;92.30;;
8407;SDS011;4241;48.452;9.216;2024-01-15T06:41:32;285.87;;;89.57;;
8407;SDS011;4241;48.452;9.216;2024-01-15T06:43:58;286.93;;;90.23;;
8407;SDS011;4241;48.452;9.216;2024-01-15T06:46:25;287.13;;;90.10;;
8407;SDS011;4241;48.452;9.216;2024-01-15T06:48:52;295.23;;;92.50;;
8407;SDS011;4241;48.452;9.216;2024-01-15T06:51:19;283.40;;;88.87;;
8407;SDS011;4241;48.452;9.216;2024-01-15T06:53:46;292.03;;;92.37;;
8407;SDS011;4241;48.452;9.216;2024-01-15T06:56:13;286.63;;;91.03;;
8407;SDS011;4241;48.452;9.216;2024-01-15T06:58:41;283.60;;;88.43;;
8407;SDS011;4241;48.452;9.216;2024-01-15T07:01:08;283.27;;;88.47;;
8407;SDS011;4241;48.452;9.216;2024-01-15T07:03:35;292.63;;;92.60;;
8407;SDS011;4241;48.452;9.216;2024-01-15T07:06:02;284.50;;;88.43;;
8407;SDS011;4241;48.452;9.216;2024-01-15T07:08:30;296.43;;;93.40;;
8407;SDS011;4241;48.452;9.216;2024-01-15T07:10:57;285.43;;;88.73;;
8407;SDS011;4241;48.452;9.216;2024-01-15T07:13:24;294.60;;;92.43;;
8407;SDS011;4241;48.452;9.216;2024-01-15T07:15:52;294.40;;;92.73;;
8407;SDS011;4241;48.452;9.216;2024-01-15T07:18:19;300.03;;;94.50;;
8407;SDS011;4241;48.452;9.216;2024-01-15T07:20:45;290.47;;;89.83;;
8407;SDS011;4241;48.452;9.216;2024-01-15T07:23:12;299.70;;;93.00;;
8407;SDS011;4241;48.452;9.216;2024-01-15T07:25:39;293.73;;;91.20;;
8407;SDS011;4241;48.452;9.216;2024-01-15T07:28:06;300.93;;;94.07;;
8407;SDS011;4241;48.452;9.216;2024-01-15T07:30:32;295.17;;;92.03;;
8407;SDS011;4241;48.452;9.216;2024-01-15T07:33:01;302.30;;;94.70;;
8407;SDS011;4241;48.452;9.216;2024-01-15T07:35:29;292.77;;;91.00;;
8407;SDS011;4241;48.452;9.216;2024-01-15T07:37:56;301.87;;;93.50;;
8407;SDS011;4241;48.452;9.216;2024-01-15T07:40:23;298.87;;;92.27;;
8407;SDS011;4241;48.452;9.216;2024-01-15T07:42:50;310.57;;;97.00;;
8407;SDS011;4241;48.452;9.216;2024-01-15T07:45:17;305.17;;;94.27;;
8407;SDS011;4241;48.452;9.216;2024-01-15T07:47:44;315.10;;;96.50;;
8407;SDS011;4241;48.452;9.216;2024-01-15T07:50:12;304.90;;;92.77;;
8407;SDS011;4241;48.452;9.216;2024-01-15T07:52:39;310.90;;;95.30;;
8407;SDS011;4241;48.452;9.216;2024-01-15T07:55:07;311.67;;;95.17;;
8407;SDS011;4241;48.452;9.216;2024-01-15T07:57:34;317.93;;;97.17;;
8407;SDS011;4241;48.452;9.216;2024-01-15T08:00:02;313.50;;;95.80;;
8407;SDS011;4241;48.452;9.216;2024-01-15T08:02:30;325.93;;;100.17;;
8407;SDS011;4241;48.452;9.216;2024-01-15T08:04:57;313.13;;;94.90;;
8407;SDS011;4241;48.452;9.216;2024-01-15T08:07:26;320.07;;;97.40;;
8407;SDS011;4241;48.452;9.216;2024-01-15T08:09:52;319.07;;;95.17;;
8407;SDS011;4241;48.452;9.216;2024-01-15T08:12:19;329.87;;;101.53;;
8407;SDS011;4241;48.452;9.216;2024-01-15T08:14:47;317.97;;;95.33;;
8407;SDS011;4241;48.452;9.216;2024-01-15T08:17:14;327.83;;;98.63;;
8407;SDS011;4241;48.452;9.216;2024-01-15T08:19:41;321.40;;;96.03;;
8407;SDS011;4241;48.452;9.216;2024-01-15T08:22:08;335.40;;;101.43;;
8407;SDS011;4241;48.452;9.216;2024-01-15T08:24:37;320.17;;;96.20;;
8407;SDS011;4241;48.452;9.216;2024-01-15T08:27:04;326.57;;;98.43;;
8407;SDS011;4241;48.452;9.216;2024-01-15T08:29:31;326.60;;;97.40;;
8407;SDS011;4241;48.452;9.216;2024-01-15T08:32:00;333.67;;;99.77;;
8407;SDS011;4241;48.452;9.216;2024-01-15T08:34:26;327.40;;;97.47;;
8407;SDS011;4241;48.452;9.216;2024-01-15T08:36:53;337.30;;;102.73;;
8407;SDS011;4241;48.452;9.216;2024-01-15T08:39:20;325.77;;;97.17;;
8407;SDS011;4241;48.452;9.216;2024-01-15T08:41:48;336.93;;;101.20;;
8407;SDS011;4241;48.452;9.216;2024-01-15T08:44:15;331.10;;;99.30;;
8407;SDS011;4241;48.452;9.216;2024-01-15T08:46:43;342.90;;;101.90;;
8407;SDS011;4241;48.452;9.216;2024-01-15T08:49:10;337.83;;;100.20;;
8407;SDS011;4241;48.452;9.216;2024-01-15T08:51:36;346.73;;;103.47;;
8407;SDS011;4241;48.452;9.216;2024-01-15T08:54:04;332.50;;;98.23;;
8407;SDS011;4241;48.452;9.216;2024-01-15T08:56:33;339.83;;;100.63;;
8407;SDS011;4241;48.452;9.216;2024-01-15T08:59:01;335.33;;;98.83;;
8407;SDS011;4241;48.452;9.216;2024-01-15T09:01:28;351.53;;;105.70;;
8407;SDS011;4241;48.452;9.216;2024-01-15T09:03:56;343.27;;;102.80;;
8407;SDS011;4241;48.452;9.216;2024-01-15T09:06:23;344.10;;;103.03;;
8407;SDS011;4241;48.452;9.216;2024-01-15T09:08:49;335.70;;;99.47;;
8407;SDS011;4241;48.452;9.216;2024-01-15T09:11:16;347.70;;;102.87;;
8407;SDS011;4241;48.452;9.216;2024-01-15T09:13:43;341.60;;;100.70;;
8407;SDS011;4241;48.452;9.216;2024-01-15T09:16:11;350.33;;;104.40;;
8407;SDS011;4241;48.452;9.216;2024-01-15T09:18:38;344.80;;;101.70;;
8407;SDS011;4241;48.452;9.216;2024-01-15T09:21:05;350.83;;;103.30;;
8407;SDS011;4241;48.452;9.216;2024-01-15T09:23:32;349.10;;;102.73;;
8407;SDS011;4241;48.452;9.216;2024-01-15T09:25:58;348.27;;;103.70;;
8407;SDS011;4241;48.452;9.216;2024-01-15T09:28:25;343.27;;;101.80;;
8407;SDS011;4241;48.452;9.216;2024-01-15T09:30:53;340.60;;;100.43;;
8407;SDS011;4241;48.452;9.216;2024-01-15T09:33:21;346.07;;;102.70;;
8407;SDS011;4241;48.452;9.216;2024-01-15T09:35:47;348.47;;;102.77;;
8407;SDS011;4241;48.452;9.216;2024-01-15T09:38:14;352.47;;;103.43;;
8407;SDS011;4241;48.452;9.216;2024-01-15T09:40:43;355.67;;;104.47;;
8407;SDS011;4241;48.452;9.216;2024-01-15T09:43:12;353.93;;;104.57;;
8407;SDS011;4241;48.452;9.216;2024-01-15T09:45:42;345.27;;;102.33;;
8407;SDS011;4241;48.452;9.216;2024-01-15T09:48:09;344.53;;;102.77;;
8407;SDS011;4241;48.452;9.216;2024-01-15T09:50:37;344.37;;;103.37;;
8407;SDS011;4241;48.452;9.216;2024-01-15T09:53:04;351.90;;;105.27;;
8407;SDS011;4241;48.452;9.216;2024-01-15T09:55:32;341.87;;;100.93;;
8407;SDS011;4241;48.452;9.216;2024-01-15T09:57:59;349.37;;;104.70;;
8407;SDS011;4241;48.452;9.216;2024-01-15T10:00:26;345.43;;;102.23;;
8407;SDS011;4241;48.452;9.216;2024-01-15T10:02:56;341.83;;;102.40;;
8407;SDS011;4241;48.452;9.216;2024-01-15T10:05:23;354.50;;;106.33;;
8407;SDS011;4241;48.452;9.216;2024-01-15T10:07:51;353.83;;;104.13;;
8407;SDS011;4241;48.452;9.216;2024-01-15T10:10:20;357.03;;;105.50;;
8407;SDS011;4241;48.452;9.216;2024-01-15T10:12:48;360.67;;;106.63;;
8407;SDS011;4241;48.452;9.216;2024-01-15T10:15:14;364.30;;;110.67;;
8407;SDS011;4241;48.452;9.216;2024-01-15T10:17:42;358.10;;;104.47;;
8407;SDS011;4241;48.452;9.216;2024-01-15T10:20:10;360.67;;;107.60;;
8407;SDS011;4241;48.452;9.216;2024-01-15T10:22:39;356.73;;;105.37;;
8407;SDS011;4241;48.452;9.216;2024-01-15T10:25:11;353.10;;;103.90;;
8407;SDS011;4241;48.452;9.216;2024-01-15T10:27:38;360.80;;;106.77;;
8407;SDS011;4241;48.452;9.216;2024-01-15T10:30:06;358.70;;;106.23;;
8407;SDS011;4241;48.452;9.216;2024-01-15T10:32:34;364.20;;;108.40;;
8407;SDS011;4241;48.452;9.216;2024-01-15T10:35:00;352.10;;;103.03;;
8407;SDS011;4241;48.452;9.216;2024-01-15T10:37:27;368.67;;;108.13;;
8407;SDS011;4241;48.452;9.216;2024-01-15T10:39:54;359.60;;;104.57;;
8407;SDS011;4241;48.452;9.216;2024-01-15T10:42:22;370.90;;;109.20;;
8407;SDS011;4241;48.452;9.216;2024-01-15T10:44:49;363.53;;;105.60;;
8407;SDS011;4241;48.452;9.216;2024-01-15T10:47:16;371.43;;;110.80;;
8407;SDS011;4241;48.452;9.216;2024-01-15T10:49:44;359.87;;;106.37;;
8407;SDS011;4241;48.452;9.216;2024-01-15T10:52:12;366.27;;;109.30;;
8407;SDS011;4241;48.452;9.216;2024-01-15T10:54:39;355.43;;;104.70;;
8407;SDS011;4241;48.452;9.216;2024-01-15T10:57:09;374.50;;;113.90;;
8407;SDS011;4241;48.452;9.216;2024-01-15T10:59:37;352.93;;;103.30;;
8407;SDS011;4241;48.452;9.216;2024-01-15T11:02:04;362.53;;;108.57;;
8407;SDS011;4241;48.452;9.216;2024-01-15T11:04:31;354.67;;;103.90;;
8407;SDS011;4241;48.452;9.216;2024-01-15T11:06:58;360.10;;;105.67;;
8407;SDS011;4241;48.452;9.216;2024-01-15T11:09:28;352.80;;;103.03;;
8407;SDS011;4241;48.452;9.216;2024-01-15T11:12:06;366.27;;;108.83;;
8407;SDS011;4241;48.452;9.216;2024-01-15T11:14:34;360.67;;;106.93;;
8407;SDS011;4241;48.452;9.216;2024-01-15T11:17:02;355.37;;;104.30;;
8407;SDS011;4241;48.452;9.216;2024-01-15T11:19:42;356.87;;;105.53;;
8407;SDS011;4241;48.452;9.216;2024-01-15T11:22:10;347.70;;;102.17;;
8407;SDS011;4241;48.452;9.216;2024-01-15T11:24:57;348.93;;;102.00;;
8407;SDS011;4241;48.452;9.216;2024-01-15T11:27:39;352.43;;;103.50;;
8407;SDS011;4241;48.452;9.216;2024-01-15T11:30:07;355.87;;;104.27;;
8407;SDS011;4241;48.452;9.216;2024-01-15T11:32:37;352.53;;;103.73;;
8407;SDS011;4241;48.452;9.216;2024-01-15T11:35:06;356.30;;;106.17;;
8407;SDS011;4241;48.452;9.216;2024-01-15T11:40:37;364.70;;;106.27;;
8407;SDS011;4241;48.452;9.216;2024-01-15T11:43:07;375.73;;;112.40;;
8407;SDS011;4241;48.452;9.216;2024-01-15T11:45:35;362.37;;;105.67;;
8407;SDS011;4241;48.452;9.216;2024-01-15T11:50:51;367.40;;;107.70;;
8407;SDS011;4241;48.452;9.216;2024-01-15T11:53:27;358.60;;;106.67;;
8407;SDS011;4241;48.452;9.216;2024-01-15T11:56:01;356.87;;;105.57;;
8407;SDS011;4241;48.452;9.216;2024-01-15T11:58:29;354.17;;;104.20;;
8407;SDS011;4241;48.452;9.216;2024-01-15T12:00:56;361.00;;;106.13;;
8407;SDS011;4241;48.452;9.216;2024-01-15T12:03:24;382.33;;;119.43;;
8407;SDS011;4241;48.452;9.216;2024-01-15T12:05:52;359.27;;;105.17;;
8407;SDS011;4241;48.452;9.216;2024-01-15T12:08:20;370.20;;;113.47;;
8407;SDS011;4241;48.452;9.216;2024-01-15T12:10:48;349.93;;;101.73;;
8407;SDS011;4241;48.452;9.216;2024-01-15T12:13:15;357.73;;;104.97;;
8407;SDS011;4241;48.452;9.216;2024-01-15T12:15:43;349.93;;;103.27;;
8407;SDS011;4241;48.452;9.216;2024-01-15T12:18:12;355.63;;;105.77;;
8407;SDS011;4241;48.452;9.216;2024-01-15T12:20:41;349.80;;;103.20;;
8407;SDS011;4241;48.452;9.216;2024-01-15T12:23:12;356.50;;;105.93;;
8407;SDS011;4241;48.452;9.216;2024-01-15T12:25:39;352.00;;;103.90;;
8407;SDS011;4241;48.452;9.216;2024-01-15T12:28:06;356.60;;;105.77;;
8407;SDS011;4241;48.452;9.216;2024-01-15T12:30:34;367.97;;;110.10;;
8407;SDS011;4241;48.452;9.216;2024-01-15T12:33:02;359.47;;;106.00;;
8407;SDS011;4241;48.452;9.216;2024-01-15T12:35:29;352.03;;;103.70;;
8407;SDS011;4241;48.452;9.216;2024-01-15T12:37:59;353.47;;;103.73;;
8407;SDS011;4241;48.452;9.216;2024-01-15T12:40:27;346.67;;;101.77;;
8407;SDS011;4241;48.452;9.216;2024-01-15T12:42:54;363.90;;;108.40;;
8407;SDS011;4241;48.452;9.216;2024-01-15T12:45:21;352.53;;;101.93;;
8407;SDS011;4241;48.452;9.216;2024-01-15T12:47:48;365.13;;;106.97;;
8407;SDS011;4241;48.452;9.216;2024-01-15T12:50:16;377.33;;;113.90;;
8407;SDS011;4241;48.452;9.216;2024-01-15T12:52:43;359.90;;;105.40;;
8407;SDS011;4241;48.452;9.216;2024-01-15T12:55:11;361.03;;;105.93;;
8407;SDS011;4241;48.452;9.216;2024-01-15T12:57:39;359.77;;;106.60;;
8407;SDS011;4241;48.452;9.216;2024-01-15T13:00:07;356.27;;;104.47;;
8407;SDS011;4241;48.452;9.216;2024-01-15T13:02:37;360.07;;;106.17;;
8407;SDS011;4241;48.452;9.216;2024-01-15T13:05:07;349.47;;;101.73;;
8407;SDS011;4241;48.452;9.216;2024-01-15T13:07:34;355.60;;;104.33;;
8407;SDS011;4241;48.452;9.216;2024-01-15T13:10:01;349.93;;;102.03;;
8407;SDS011;4241;48.452;9.216;2024-01-15T13:12:29;362.73;;;106.83;;
8407;SDS011;4241;48.452;9.216;2024-01-15T13:14:57;353.07;;;103.77;;
8407;SDS011;4241;48.452;9.216;2024-01-15T13:17:24;355.73;;;104.57;;
8407;SDS011;4241;48.452;9.216;2024-01-15T13:19:51;354.83;;;103.77;;
8407;SDS011;4241;48.452;9.216;2024-01-15T13:22:18;359.80;;;106.60;;
8407;SDS011;4241;48.452;9.216;2024-01-15T13:24:45;346.67;;;101.10;;
8407;SDS011;4241;48.452;9.216;2024-01-15T13:27:12;357.33;;;104.97;;
8407;SDS011;4241;48.452;9.216;2024-01-15T13:29:40;352.93;;;103.20;;
8407;SDS011;4241;48.452;9.216;2024-01-15T13:32:07;350.67;;;103.07;;
8407;SDS011;4241;48.452;9.216;2024-01-15T13:34:35;342.87;;;101.03;;
8407;SDS011;4241;48.452;9.216;2024-01-15T13:37:02;351.43;;;102.47;;
8407;SDS011;4241;48.452;9.216;2024-01-15T13:39:29;344.23;;;100.47;;
8407;SDS011;4241;48.452;9.216;2024-01-15T13:41:58;356.63;;;105.00;;
8407;SDS011;4241;48.452;9.216;2024-01-15T13:44:25;346.10;;;99.87;;
8407;SDS011;4241;48.452;9.216;2024-01-15T13:46:54;354.00;;;103.50;;
8407;SDS011;4241;48.452;9.216;2024-01-15T13:49:22;347.67;;;102.20;;
8407;SDS011;4241;48.452;9.216;2024-01-15T13:51:49;348.67;;;102.97;;
8407;SDS011;4241;48.452;9.216;2024-01-15T13:54:16;357.23;;;106.27;;
8407;SDS011;4241;48.452;9.216;2024-01-15T13:56:43;349.60;;;102.23;;
8407;SDS011;4241;48.452;9.216;2024-01-15T13:59:11;345.70;;;101.00;;
8407;SDS011;4241;48.452;9.216;2024-01-15T14:01:38;355.13;;;104.67;;
8407;SDS011;4241;48.452;9.216;2024-01-15T14:04:06;351.23;;;103.70;;
8407;SDS011;4241;48.452;9.216;2024-01-15T14:06:33;345.50;;;102.13;;
8407;SDS011;4241;48.452;9.216;2024-01-15T14:09:00;348.17;;;103.23;;
8407;SDS011;4241;48.452;9.216;2024-01-15T14:11:29;351.67;;;104.53;;
8407;SDS011;4241;48.452;9.216;2024-01-15T14:13:56;348.30;;;103.67;;
8407;SDS011;4241;48.452;9.216;2024-01-15T14:16:23;366.83;;;111.93;;
8407;SDS011;4241;48.452;9.216;2024-01-15T14:18:50;347.30;;;102.27;;
8407;SDS011;4241;48.452;9.216;2024-01-15T14:21:18;343.00;;;100.33;;
8407;SDS011;4241;48.452;9.216;2024-01-15T14:23:45;344.23;;;101.37;;
8407;SDS011;4241;48.452;9.216;2024-01-15T14:26:13;362.87;;;111.37;;
8407;SDS011;4241;48.452;9.216;2024-01-15T14:28:39;342.13;;;100.70;;
8407;SDS011;4241;48.452;9.216;2024-01-15T14:31:06;343.40;;;100.67;;
8407;SDS011;4241;48.452;9.216;2024-01-15T14:33:34;345.63;;;103.17;;
8407;SDS011;4241;48.452;9.216;2024-01-15T14:36:00;349.63;;;104.23;;